createdAt,value
2018-11-20T00:00:15.410Z,3.54
2018-11-20T00:03:01.782Z,3.49
2018-11-20T00:05:48.315Z,3.42
2018-11-20T00:08:34.660Z,3.30
2018-11-20T00:11:21.188Z,3.23
2018-11-20T00:14:07.535Z,3.15
2018-11-20T00:16:57.149Z,3.07
2018-11-20T00:19:36.912Z,3.05
2018-11-20T00:22:23.243Z,3.04
2018-11-20T00:25:11.707Z,3.01
2018-11-20T00:27:58.239Z,3.04
2018-11-20T00:30:44.631Z,3.04
2018-11-20T00:33:32.027Z,3.02
2018-11-20T00:36:17.211Z,3.02
2018-11-20T00:39:03.665Z,3.03
2018-11-20T00:41:39.620Z,3.06
2018-11-20T00:44:35.457Z,3.07
2018-11-20T00:47:22.165Z,3.05
2018-11-20T00:50:08.488Z,3.07
2018-11-20T00:52:54.760Z,3.10
2018-11-20T00:55:42.251Z,3.11
2018-11-20T00:58:22.162Z,3.13
2018-11-20T01:01:08.492Z,3.15
2018-11-20T01:03:54.811Z,3.18
2018-11-20T01:06:41.081Z,3.19
2018-11-20T01:09:27.395Z,3.20
2018-11-20T01:12:14.035Z,3.20
2018-11-20T01:15:00.377Z,3.20
2018-11-20T01:17:46.660Z,3.22
2018-11-20T01:20:32.986Z,3.24
2018-11-20T01:23:19.313Z,3.26
2018-11-20T01:26:06.021Z,3.26
2018-11-20T01:28:52.307Z,3.27
2018-11-20T01:31:38.734Z,3.27
2018-11-20T01:34:24.998Z,3.26
2018-11-20T01:37:11.332Z,3.27
2018-11-20T01:39:57.579Z,3.25
2018-11-20T01:42:44.175Z,3.27
2018-11-20T01:45:30.512Z,3.25
2018-11-20T01:51:06.673Z,3.23
2018-11-20T01:53:52.953Z,3.21
2018-11-20T01:56:39.265Z,3.21
2018-11-20T01:59:25.526Z,3.20
2018-11-20T02:02:11.847Z,3.22
2018-11-20T02:04:58.822Z,3.24
2018-11-20T02:07:45.089Z,3.26
2018-11-20T02:10:31.409Z,3.30
2018-11-20T02:13:17.663Z,3.32
2018-11-20T02:18:56.065Z,3.37
2018-11-20T02:21:42.665Z,3.38
2018-11-20T02:24:22.193Z,3.40
2018-11-20T02:27:08.503Z,3.42
2018-11-20T02:29:54.764Z,3.43
2018-11-20T02:32:41.087Z,3.42
2018-11-20T02:35:27.345Z,3.45
2018-11-20T02:38:13.672Z,3.46
2018-11-20T02:40:59.987Z,3.48
2018-11-20T02:43:53.826Z,3.49
2018-11-20T02:46:40.149Z,3.50
2018-11-20T02:49:26.406Z,3.51
2018-11-20T02:52:12.902Z,3.52
2018-11-20T02:54:59.218Z,3.54
2018-11-20T02:57:45.162Z,3.54
2018-11-20T03:00:31.473Z,3.54
2018-11-20T03:03:17.835Z,3.54
2018-11-20T03:06:04.389Z,3.55
2018-11-20T03:08:50.737Z,3.58
2018-11-20T03:11:37.329Z,3.60
2018-11-20T03:14:23.517Z,3.62
2018-11-20T03:17:10.500Z,3.61
2018-11-20T03:19:56.829Z,3.61
2018-11-20T03:22:43.434Z,3.62
2018-11-20T03:25:29.669Z,3.60
2018-11-20T03:28:16.378Z,3.62
2018-11-20T03:31:02.728Z,3.61
2018-11-20T03:33:49.236Z,3.63
2018-11-20T03:36:35.160Z,3.64
2018-11-20T03:39:21.441Z,3.65
2018-11-20T03:42:07.788Z,3.67
2018-11-20T03:47:48.264Z,3.68
2018-11-20T03:50:34.430Z,3.69
2018-11-20T03:53:20.748Z,3.70
2018-11-20T03:56:06.993Z,3.72
2018-11-20T03:58:53.369Z,3.73
2018-11-20T04:01:39.644Z,3.74
2018-11-20T04:04:27.226Z,3.74
2018-11-20T04:07:13.601Z,3.73
2018-11-20T04:09:59.928Z,3.73
2018-11-20T04:12:46.198Z,3.74
2018-11-20T04:15:32.786Z,3.73
2018-11-20T04:18:19.482Z,3.74
2018-11-20T04:21:06.072Z,3.75
2018-11-20T04:23:52.379Z,3.77
2018-11-20T04:26:29.518Z,3.78
2018-11-20T04:29:15.925Z,3.78
2018-11-20T04:31:50.283Z,3.78
2018-11-20T04:34:36.526Z,3.77
2018-11-20T04:37:23.153Z,3.76
2018-11-20T04:40:09.504Z,3.77
2018-11-20T04:46:01.031Z,3.74
2018-11-20T04:48:47.288Z,3.75
2018-11-20T04:51:33.607Z,3.75
2018-11-20T04:54:19.854Z,3.76
2018-11-20T04:57:06.447Z,3.75
2018-11-20T04:59:52.762Z,3.74
2018-11-20T05:02:39.013Z,3.73
2018-11-20T05:05:28.497Z,3.72
2018-11-20T05:08:14.835Z,3.73
2018-11-20T05:11:01.172Z,3.72
2018-11-20T05:13:47.763Z,3.73
2018-11-20T05:16:22.625Z,3.75
2018-11-20T05:19:08.870Z,3.75
2018-11-20T05:21:55.202Z,3.77
2018-11-20T05:24:41.546Z,3.78
2018-11-20T05:27:27.818Z,3.79
2018-11-20T05:33:08.944Z,3.80
2018-11-20T05:36:03.764Z,3.80
2018-11-20T05:41:40.335Z,3.80
2018-11-20T05:44:26.576Z,3.81
2018-11-20T05:47:12.893Z,3.81
2018-11-20T05:49:59.147Z,3.82
2018-11-20T05:52:45.402Z,3.81
2018-11-20T05:55:31.799Z,3.82
2018-11-20T05:58:18.507Z,3.82
2018-11-20T06:01:04.758Z,3.81
2018-11-20T06:03:51.913Z,3.81
2018-11-20T06:06:33.051Z,3.81
2018-11-20T06:09:17.215Z,3.81
2018-11-20T06:15:08.015Z,3.81
2018-11-20T06:18:10.528Z,3.82
2018-11-20T06:20:56.881Z,3.80
2018-11-20T06:23:55.294Z,3.80
2018-11-20T06:26:41.712Z,3.78
2018-11-20T06:29:29.098Z,3.78
2018-11-20T06:32:15.494Z,3.78
2018-11-20T06:35:01.876Z,3.78
2018-11-20T06:38:03.548Z,3.78
2018-11-20T06:40:49.792Z,3.78
2018-11-20T06:43:36.046Z,3.80
2018-11-20T06:46:25.176Z,3.80
2018-11-20T06:49:11.496Z,3.80
2018-11-20T06:51:57.836Z,3.81
2018-11-20T06:54:47.265Z,3.81
2018-11-20T06:57:33.631Z,3.81
2018-11-20T07:00:21.397Z,3.82
2018-11-20T07:03:10.495Z,3.81
2018-11-20T07:05:56.823Z,3.81
2018-11-20T07:08:43.119Z,3.83
2018-11-20T07:11:32.512Z,3.83
2018-11-20T07:14:21.856Z,3.83
2018-11-20T07:16:56.618Z,3.84
2018-11-20T07:19:45.327Z,3.85
2018-11-20T07:22:18.812Z,3.86
2018-11-20T07:24:57.369Z,3.85
2018-11-20T07:27:51.712Z,3.86
2018-11-20T07:30:38.116Z,3.86
2018-11-20T07:33:33.565Z,3.88
2018-11-20T07:36:20.178Z,3.87
2018-11-20T07:39:06.266Z,3.86
2018-11-20T07:41:52.583Z,3.86
2018-11-20T07:44:39.116Z,3.85
2018-11-20T07:47:25.432Z,3.85
2018-11-20T07:50:11.689Z,3.86
2018-11-20T07:52:53.175Z,3.87
2018-11-20T07:55:39.496Z,3.88
2018-11-20T07:58:41.121Z,3.88
2018-11-20T08:01:27.451Z,3.88
2018-11-20T08:04:15.362Z,3.91
2018-11-20T08:07:00.364Z,3.92
2018-11-20T08:09:46.753Z,3.93
2018-11-20T08:12:32.977Z,3.94
2018-11-20T08:15:22.935Z,3.98
2018-11-20T08:18:09.193Z,3.98
2018-11-20T08:21:05.752Z,4.00
2018-11-20T08:23:50.206Z,4.02
2018-11-20T08:26:38.515Z,4.03
2018-11-20T08:29:24.717Z,4.06
2018-11-20T08:32:11.045Z,4.06
2018-11-20T08:34:57.323Z,4.10
2018-11-20T08:37:43.689Z,4.11
2018-11-20T08:40:28.833Z,4.13
2018-11-20T08:43:15.146Z,4.12
2018-11-20T08:46:01.405Z,4.15
2018-11-20T08:48:59.706Z,4.15
2018-11-20T08:51:46.061Z,4.16
2018-11-20T08:54:32.249Z,4.19
2018-11-20T08:57:18.645Z,4.21
2018-11-20T09:00:07.789Z,4.22
2018-11-20T09:02:54.083Z,4.24
2018-11-20T09:05:52.446Z,4.27
2018-11-20T09:08:38.758Z,4.30
2018-11-20T09:11:37.413Z,4.32
2018-11-20T09:14:23.595Z,4.37
2018-11-20T09:17:13.089Z,4.39
2018-11-20T09:19:59.350Z,4.42
2018-11-20T09:22:45.673Z,4.45
2018-11-20T09:25:27.273Z,4.48
2018-11-20T09:28:16.582Z,4.52
2018-11-20T09:31:08.861Z,4.54
2018-11-20T09:34:00.863Z,4.56
2018-11-20T09:36:47.236Z,4.58
2018-11-20T09:39:32.064Z,4.59
2018-11-20T09:42:18.329Z,4.61
2018-11-20T09:45:06.807Z,4.62
2018-11-20T09:47:52.871Z,4.63
2018-11-20T09:50:35.868Z,4.63
2018-11-20T09:53:33.087Z,4.64
2018-11-20T09:56:15.843Z,4.63
2018-11-20T09:59:01.160Z,4.64
2018-11-20T10:01:45.564Z,4.65
2018-11-20T10:04:31.925Z,4.66
2018-11-20T10:07:16.858Z,4.70
2018-11-20T10:10:02.310Z,4.71
2018-11-20T10:12:48.577Z,4.74
2018-11-20T10:15:45.131Z,4.75
2018-11-20T10:18:33.424Z,4.77
2018-11-20T10:21:22.836Z,4.77
2018-11-20T10:24:11.952Z,4.77
2018-11-20T10:26:56.290Z,4.77
2018-11-20T10:29:42.850Z,4.75
2018-11-20T10:35:34.384Z,4.73
2018-11-20T10:38:27.087Z,4.75
2018-11-20T10:41:13.862Z,4.76
2018-11-20T10:43:58.360Z,4.74
2018-11-20T10:46:43.322Z,4.75
2018-11-20T10:49:31.979Z,4.79
2018-11-20T10:52:31.601Z,4.80
2018-11-20T10:55:20.608Z,4.78
2018-11-20T10:58:07.005Z,4.76
2018-11-20T11:00:57.971Z,4.77
2018-11-20T11:03:28.089Z,4.79
2018-11-20T11:06:11.271Z,4.81
2018-11-20T11:08:57.607Z,4.84
2018-11-20T11:11:59.200Z,4.89
2018-11-20T11:14:50.905Z,4.94
2018-11-20T11:17:49.463Z,4.95
2018-11-20T11:20:35.984Z,4.96
2018-11-20T11:26:36.591Z,4.98
2018-11-20T11:29:22.867Z,4.99
2018-11-20T11:32:09.189Z,5.00
2018-11-20T11:34:55.457Z,5.01
2018-11-20T11:37:41.789Z,5.04
2018-11-20T11:40:29.964Z,5.06
2018-11-20T11:43:14.761Z,5.03
2018-11-20T11:45:57.312Z,5.00
2018-11-20T11:48:42.396Z,4.97
2018-11-20T11:51:15.720Z,4.96
2018-11-20T11:54:10.993Z,4.96
2018-11-20T11:57:12.480Z,4.96
2018-11-20T11:59:59.911Z,4.95
2018-11-20T12:05:32.033Z,4.96
2018-11-20T12:08:22.532Z,4.95
2018-11-20T12:11:06.865Z,4.92
2018-11-20T12:13:52.305Z,4.92
2018-11-20T12:16:38.615Z,4.92
2018-11-20T12:19:19.936Z,4.92
2018-11-20T12:22:06.258Z,4.91
2018-11-20T12:24:55.625Z,4.90
2018-11-20T12:27:41.945Z,4.92
2018-11-20T12:30:28.226Z,4.92
2018-11-20T12:33:14.577Z,4.92
2018-11-20T12:35:59.574Z,4.92
2018-11-20T12:38:45.896Z,4.92
2018-11-20T12:41:36.912Z,4.89
2018-11-20T12:44:15.054Z,4.88
2018-11-20T12:47:01.815Z,4.86
2018-11-20T12:49:46.509Z,4.85
2018-11-20T12:52:32.854Z,4.84
2018-11-20T12:55:22.100Z,4.81
2018-11-20T12:58:17.773Z,4.80
2018-11-20T13:01:11.910Z,4.78
2018-11-20T13:03:59.631Z,4.78
2018-11-20T13:06:33.616Z,4.79
2018-11-20T13:09:20.755Z,4.77
2018-11-20T13:12:05.316Z,4.78
2018-11-20T13:14:56.576Z,4.76
2018-11-20T13:17:39.842Z,4.75
2018-11-20T13:20:26.220Z,4.76
2018-11-20T13:23:12.843Z,4.74
2018-11-20T13:25:59.326Z,4.73
2018-11-20T13:28:45.634Z,4.71
2018-11-20T13:31:38.073Z,4.72
2018-11-20T13:34:21.010Z,4.71
2018-11-20T13:37:09.763Z,4.71
2018-11-20T13:40:04.024Z,4.70
2018-11-20T13:42:51.848Z,4.70
2018-11-20T13:45:45.707Z,4.69
2018-11-20T13:48:29.153Z,4.71
2018-11-20T13:51:24.431Z,4.75
2018-11-20T13:54:11.839Z,4.76
2018-11-20T13:56:55.945Z,4.78
2018-11-20T13:59:42.271Z,4.78
2018-11-20T14:02:28.570Z,4.79
2018-11-20T14:05:14.873Z,4.81
2018-11-20T14:08:01.209Z,4.82
2018-11-20T14:10:47.612Z,4.81
2018-11-20T14:13:38.743Z,4.81
2018-11-20T14:19:24.348Z,4.79
2018-11-20T14:22:13.975Z,4.78
2018-11-20T14:25:00.327Z,4.78
2018-11-20T14:27:49.936Z,4.77
2018-11-20T14:30:48.343Z,4.75
2018-11-20T14:33:35.867Z,4.76
2018-11-20T14:36:22.167Z,4.75
2018-11-20T14:39:07.261Z,4.73
2018-11-20T14:41:52.557Z,4.71
2018-11-20T14:44:37.950Z,4.70
2018-11-20T14:47:22.888Z,4.65
2018-11-20T14:50:19.882Z,4.64
2018-11-20T14:53:01.191Z,4.63
2018-11-20T14:55:47.340Z,4.58
2018-11-20T14:58:21.325Z,4.52
2018-11-20T15:01:08.057Z,4.42
2018-11-20T15:03:52.845Z,4.32
2018-11-20T15:06:43.867Z,4.20
2018-11-20T15:09:26.863Z,4.15
2018-11-20T15:12:22.006Z,4.07
2018-11-20T15:15:08.328Z,4.01
2018-11-20T15:17:54.574Z,3.94
2018-11-20T15:20:40.912Z,3.88
2018-11-20T15:23:34.083Z,3.79
2018-11-20T15:26:20.361Z,3.70
2018-11-20T15:29:06.677Z,3.62
2018-11-20T15:31:53.004Z,3.52
2018-11-20T15:34:39.302Z,3.45
2018-11-20T15:37:26.026Z,3.36
2018-11-20T15:40:12.279Z,3.30
2018-11-20T15:42:58.628Z,3.23
2018-11-20T15:45:44.915Z,3.15
2018-11-20T15:48:31.474Z,3.08
2018-11-20T15:51:17.787Z,3.03
2018-11-20T15:54:04.138Z,2.98
2018-11-20T15:56:52.873Z,2.94
2018-11-20T15:59:39.252Z,2.90
2018-11-20T16:02:25.575Z,2.87
2018-11-20T16:05:10.306Z,2.83
2018-11-20T16:07:58.760Z,2.81
2018-11-20T16:10:44.965Z,2.79
2018-11-20T16:13:31.377Z,2.78
2018-11-20T16:16:11.293Z,2.77
2018-11-20T16:19:00.252Z,2.77
2018-11-20T16:21:46.627Z,2.77
2018-11-20T16:24:32.893Z,2.76
2018-11-20T16:27:21.579Z,2.75
2018-11-20T16:30:10.592Z,2.75
2018-11-20T16:36:08.169Z,2.75
2018-11-20T16:38:54.413Z,2.74
2018-11-20T16:41:42.331Z,2.76
2018-11-20T16:44:27.110Z,2.76
2018-11-20T16:47:13.422Z,2.77
2018-11-20T16:49:55.275Z,2.79
2018-11-20T16:52:43.786Z,2.81
2018-11-20T16:55:48.527Z,2.81
2018-11-20T16:58:34.797Z,2.82
2018-11-20T17:01:21.103Z,2.83
2018-11-20T17:04:09.440Z,2.83
2018-11-20T17:06:53.680Z,2.84
2018-11-20T17:09:39.995Z,2.84
2018-11-20T17:12:26.253Z,2.86
2018-11-20T17:15:14.981Z,2.87
2018-11-20T17:18:01.298Z,2.89
2018-11-20T17:20:47.946Z,2.88
2018-11-20T17:23:34.287Z,2.87
2018-11-20T17:26:20.922Z,2.88
2018-11-20T17:29:10.137Z,2.89
2018-11-20T17:31:56.403Z,2.89
2018-11-20T17:34:42.739Z,2.90
2018-11-20T17:37:29.052Z,2.91
2018-11-20T17:40:15.311Z,2.92
2018-11-20T17:43:01.628Z,2.94
2018-11-20T17:45:47.974Z,2.95
2018-11-20T17:48:34.485Z,2.96
2018-11-20T17:51:20.911Z,2.98
2018-11-20T17:54:07.185Z,2.98
2018-11-20T17:56:53.556Z,2.97
2018-11-20T17:59:39.802Z,2.98
2018-11-20T18:02:26.284Z,2.96
2018-11-20T18:05:12.506Z,2.94
2018-11-20T18:07:56.083Z,2.95
2018-11-20T18:10:34.667Z,3.00
2018-11-20T18:13:23.384Z,3.02
2018-11-20T18:16:11.911Z,3.05
2018-11-20T18:18:58.320Z,3.07
2018-11-20T18:21:44.649Z,3.10
2018-11-20T18:24:32.525Z,3.10
2018-11-20T18:27:19.797Z,3.13
2018-11-20T18:30:06.041Z,3.17
2018-11-20T18:32:52.904Z,3.18
2018-11-20T18:35:38.690Z,3.20
2018-11-20T18:38:27.424Z,3.21
2018-11-20T18:41:11.034Z,3.21
2018-11-20T18:43:57.418Z,3.22
2018-11-20T18:46:45.812Z,3.23
2018-11-20T18:49:32.124Z,3.23
2018-11-20T18:52:18.403Z,3.27
2018-11-20T18:55:04.736Z,3.30
2018-11-20T18:57:51.357Z,3.32
2018-11-20T19:00:37.730Z,3.35
2018-11-20T19:03:24.451Z,3.36
2018-11-20T19:06:10.761Z,3.37
2018-11-20T19:08:58.317Z,3.34
2018-11-20T19:14:48.736Z,3.14
2018-11-20T19:20:40.220Z,2.94
2018-11-20T19:23:28.303Z,2.85
2018-11-20T19:26:14.699Z,2.80
2018-11-20T19:29:01.017Z,2.74
2018-11-20T19:34:20.526Z,2.73
2018-11-20T19:37:06.790Z,2.68
2018-11-20T19:39:53.521Z,2.74
2018-11-20T19:42:39.846Z,2.77
2018-11-20T19:45:26.183Z,2.76
2018-11-20T19:48:12.441Z,2.74
2018-11-20T19:51:01.150Z,2.78
2018-11-20T19:53:47.469Z,2.85
2018-11-20T19:56:33.733Z,2.91
2018-11-20T19:59:20.053Z,2.96
2018-11-20T20:02:06.381Z,3.03
2018-11-20T20:04:52.655Z,3.08
2018-11-20T20:07:38.989Z,3.13
2018-11-20T20:10:31.072Z,3.14
2018-11-20T20:13:14.705Z,3.18
2018-11-20T20:16:02.037Z,3.18
2018-11-20T20:18:41.912Z,3.16
2018-11-20T20:21:28.329Z,3.16
2018-11-20T20:24:18.269Z,3.14
2018-11-20T20:30:12.265Z,3.16
2018-11-20T20:32:58.597Z,3.13
2018-11-20T20:35:53.738Z,3.07
2018-11-20T20:38:40.061Z,3.03
2018-11-20T20:41:26.332Z,2.97
2018-11-20T20:44:15.156Z,2.90
2018-11-20T20:47:03.815Z,2.81
2018-11-20T20:49:50.137Z,2.74
2018-11-20T20:52:36.412Z,2.68
2018-11-20T20:55:22.755Z,2.63
2018-11-20T20:58:10.264Z,2.59
2018-11-20T21:00:55.351Z,2.58
2018-11-20T21:03:41.682Z,2.57
2018-11-20T21:06:27.940Z,2.60
2018-11-20T21:09:14.304Z,2.67
2018-11-20T21:12:00.565Z,2.74
2018-11-20T21:14:47.288Z,2.79
2018-11-20T21:17:33.587Z,2.81
2018-11-20T21:20:19.956Z,2.82
2018-11-20T21:23:06.231Z,2.83
2018-11-20T21:25:52.554Z,2.82
2018-11-20T21:28:38.906Z,2.80
2018-11-20T21:31:25.338Z,2.77
2018-11-20T21:34:07.790Z,2.70
2018-11-20T21:36:54.074Z,2.63
2018-11-20T21:39:40.447Z,2.57
2018-11-20T21:42:26.725Z,2.50
2018-11-20T21:45:15.757Z,2.42
2018-11-20T21:47:59.328Z,2.34
2018-11-20T21:53:51.214Z,2.20
2018-11-20T21:56:39.260Z,2.14
2018-11-20T21:59:25.580Z,2.09
2018-11-20T22:02:11.914Z,2.02
2018-11-20T22:04:58.216Z,1.98
2018-11-20T22:07:44.547Z,1.92
2018-11-20T22:13:22.216Z,1.79
2018-11-20T22:16:08.565Z,1.71
2018-11-20T22:18:54.755Z,1.65
2018-11-20T22:21:41.181Z,1.56
2018-11-20T22:24:27.472Z,1.50
2018-11-20T22:27:15.881Z,1.43
2018-11-20T22:30:02.160Z,1.40
2018-11-20T22:32:48.494Z,1.39
2018-11-20T22:35:33.378Z,1.39
2018-11-20T22:38:20.067Z,1.37
2018-11-20T22:41:09.785Z,1.38
2018-11-20T22:43:56.496Z,1.38
2018-11-20T22:46:42.840Z,1.38
2018-11-20T22:52:19.308Z,1.40
2018-11-20T22:55:09.315Z,1.41
2018-11-20T22:57:54.418Z,1.41
2018-11-20T23:00:40.691Z,1.40
2018-11-20T23:03:26.979Z,1.41
2018-11-20T23:06:13.307Z,1.45
2018-11-20T23:08:41.006Z,1.48
2018-11-20T23:11:08.360Z,1.47
2018-11-20T23:13:35.771Z,1.48
2018-11-20T23:16:22.171Z,1.51
2018-11-20T23:18:49.580Z,1.55
2018-11-20T23:21:16.985Z,1.62
2018-11-20T23:24:03.373Z,1.65
2018-11-20T23:26:30.724Z,1.64
2018-11-20T23:29:19.032Z,1.65
2018-11-20T23:31:44.469Z,1.66
2018-11-20T23:34:11.841Z,1.72
2018-11-20T23:36:58.232Z,1.75
2018-11-20T23:39:27.166Z,1.75
2018-11-20T23:41:54.542Z,1.74
2018-11-20T23:44:40.909Z,1.71
2018-11-20T23:47:08.249Z,1.69
2018-11-20T23:49:35.640Z,1.67
2018-11-20T23:52:21.895Z,1.60
2018-11-20T23:54:49.324Z,1.55
2018-11-20T23:57:16.709Z,1.59
